Time;durP1;ratioP1;P1;durP2;ratioP2;P2;SDS_P1;SDS_P2;PMS_P1;PMS_P2;Temp;Humidity;BMP_temperature;BMP_pressure;BME280_temperature;BME280_humidity;BME280_pressure;Samples;Min_cycle;Max_cycle;Signal;HPM_P1;HPM_P2
2022/07/01 00:00:36;;;;;;;23.77;9.45;;;21.20;85.80;;;;;;5073461;28;20195;-89
2022/07/01 00:03:02;;;;;;;26.48;7.57;;;20.80;86.60;;;;;;5073700;28;20175;-88
2022/07/01 00:05:27;;;;;;;11.43;5.93;;;20.70;86.60;;;;;;5073418;28;20320;-89
2022/07/01 00:07:53;;;;;;;9.23;5.63;;;20.50;85.90;;;;;;5073757;28;20195;-89
2022/07/01 00:10:19;;;;;;;10.70;5.55;;;20.50;86.50;;;;;;5073413;28;20214;-87
2022/07/01 00:12:46;;;;;;;17.33;6.00;;;20.40;86.20;;;;;;5072221;28;20179;-88
2022/07/01 00:15:12;;;;;;;8.57;5.20;;;20.40;87.00;;;;;;5073520;28;20174;-87
2022/07/01 00:17:39;;;;;;;16.75;5.50;;;20.30;87.10;;;;;;5073684;28;20207;-88
2022/07/01 00:20:07;;;;;;;8.05;4.97;;;20.20;87.60;;;;;;5073163;28;20241;-87
2022/07/01 00:22:33;;;;;;;9.75;4.35;;;20.20;88.10;;;;;;5073255;28;20246;-89
2022/07/01 00:24:59;;;;;;;10.95;4.60;;;20.30;87.80;;;;;;5073198;28;20175;-89
2022/07/01 00:27:25;;;;;;;9.60;5.00;;;20.20;87.80;;;;;;5072104;28;20205;-88
2022/07/01 00:29:50;;;;;;;11.60;5.15;;;20.20;88.70;;;;;;5073367;28;20226;-88
2022/07/01 00:32:16;;;;;;;8.48;5.13;;;20.20;88.70;;;;;;5073447;28;20197;-88
2022/07/01 00:34:42;;;;;;;8.55;5.07;;;20.00;88.80;;;;;;5072240;28;20182;-87
2022/07/01 00:37:07;;;;;;;6.90;5.25;;;20.10;88.90;;;;;;5074129;28;20179;-87
2022/07/01 00:39:35;;;;;;;10.88;5.65;;;20.20;88.70;;;;;;5074433;28;20176;-86
2022/07/01 00:42:02;;;;;;;15.27;5.60;;;20.20;88.70;;;;;;5071934;28;20195;-89
2022/07/01 00:44:28;;;;;;;20.88;5.72;;;20.20;88.70;;;;;;5073405;28;20172;-89
2022/07/01 00:46:54;;;;;;;9.68;5.43;;;20.10;89.00;;;;;;5073923;28;20216;-89
2022/07/01 00:49:20;;;;;;;10.95;5.20;;;20.10;89.30;;;;;;5073409;28;20281;-89
2022/07/01 00:51:45;;;;;;;7.75;5.13;;;20.20;89.00;;;;;;5072958;28;20187;-89
2022/07/01 00:54:12;;;;;;;7.15;4.95;;;20.10;89.00;;;;;;5073187;28;20606;-88
2022/07/01 00:56:37;;;;;;;10.10;4.97;;;20.20;89.20;;;;;;5073167;28;20684;-88
2022/07/01 00:59:03;;;;;;;11.82;6.43;;;20.10;89.20;;;;;;5074151;28;20160;-89
2022/07/01 01:01:29;;;;;;;7.75;5.45;;;20.10;89.20;;;;;;5072945;28;20241;-88
2022/07/01 01:03:56;;;;;;;7.35;4.95;;;20.20;89.20;;;;;;5073174;28;20248;-88
2022/07/01 01:06:22;;;;;;;9.15;4.72;;;20.10;89.10;;;;;;5073045;28;20258;-87
2022/07/01 01:08:48;;;;;;;9.50;5.40;;;20.20;89.10;;;;;;5072891;28;20191;-88
2022/07/01 01:11:16;;;;;;;6.93;5.57;;;20.20;89.00;;;;;;5071527;28;20198;-89
2022/07/01 01:13:41;;;;;;;8.35;5.22;;;20.00;89.00;;;;;;5072936;28;20163;-90
2022/07/01 01:16:08;;;;;;;11.52;5.57;;;20.00;89.20;;;;;;5074768;28;20171;-91
2022/07/01 01:18:34;;;;;;;15.30;6.22;;;19.90;89.60;;;;;;5075631;28;20570;-90
2022/07/01 01:21:00;;;;;;;15.82;6.25;;;19.70;89.90;;;;;;5076304;28;20188;-90
2022/07/01 01:23:26;;;;;;;10.80;6.80;;;19.60;90.50;;;;;;5076468;28;20167;-89
2022/07/01 01:25:51;;;;;;;8.65;7.20;;;19.40;91.00;;;;;;5076246;28;20242;-89
2022/07/01 01:28:17;;;;;;;11.80;8.38;;;19.20;91.60;;;;;;5076532;28;20660;-89
2022/07/01 01:30:43;;;;;;;9.38;7.93;;;19.20;92.00;;;;;;5075988;28;20239;-90
2022/07/01 01:33:09;;;;;;;10.95;8.25;;;19.20;92.10;;;;;;5076139;28;20160;-89
2022/07/01 01:35:35;;;;;;;12.02;9.13;;;19.20;92.10;;;;;;5076112;28;20179;-89
2022/07/01 01:38:00;;;;;;;13.02;8.13;;;19.20;92.40;;;;;;5076177;28;20334;-89
2022/07/01 01:40:26;;;;;;;13.18;8.38;;;19.40;92.60;;;;;;5074782;28;20249;-90
2022/07/01 01:42:52;;;;;;;10.73;8.50;;;19.40;92.40;;;;;;5076041;28;20658;-89
2022/07/01 01:45:18;;;;;;;10.18;7.75;;;19.50;92.40;;;;;;5076898;28;20253;-90
2022/07/01 01:47:44;;;;;;;11.88;8.18;;;19.40;92.10;;;;;;5076427;28;20175;-89
2022/07/01 01:50:12;;;;;;;10.60;8.52;;;19.30;92.20;;;;;;5076173;28;20664;-89
2022/07/01 01:52:41;;;;;;;11.60;8.68;;;19.50;92.50;;;;;;5075936;28;20195;-89
2022/07/01 01:55:07;;;;;;;10.75;8.15;;;19.40;92.40;;;;;;5075770;28;20172;-89
2022/07/01 01:57:33;;;;;;;10.10;8.35;;;19.30;92.50;;;;;;5075754;28;20175;-89
2022/07/01 01:59:58;;;;;;;8.65;7.82;;;19.30;92.60;;;;;;5075822;28;20666;-89
2022/07/01 02:02:26;;;;;;;12.38;8.15;;;19.40;92.70;;;;;;5075802;28;20179;-89
2022/07/01 02:04:52;;;;;;;13.38;8.13;;;19.50;92.60;;;;;;5075897;28;20172;-90
2022/07/01 02:07:18;;;;;;;12.57;8.30;;;19.30;92.30;;;;;;5074457;28;20179;-89
2022/07/01 02:09:43;;;;;;;10.82;8.05;;;19.20;92.60;;;;;;5075498;28;20197;-89
2022/07/01 02:12:09;;;;;;;11.57;8.23;;;19.20;92.80;;;;;;5075590;28;20195;-89
2022/07/01 02:14:34;;;;;;;11.15;7.93;;;19.20;92.90;;;;;;5075843;28;20171;-89
2022/07/01 02:17:00;;;;;;;8.80;7.47;;;19.20;92.90;;;;;;5075482;28;20170;-89
2022/07/01 02:19:26;;;;;;;17.48;8.55;;;19.20;92.80;;;;;;5075493;28;20548;-89
2022/07/01 02:21:51;;;;;;;11.20;7.90;;;19.10;92.80;;;;;;5075452;28;20206;-89
2022/07/01 02:24:18;;;;;;;10.95;8.00;;;19.10;93.00;;;;;;5075850;28;20179;-89
2022/07/01 02:26:44;;;;;;;11.13;8.40;;;19.20;93.10;;;;;;5074837;28;20195;-89
2022/07/01 02:29:09;;;;;;;9.93;7.25;;;19.20;93.10;;;;;;5075290;28;20233;-89
2022/07/01 02:31:35;;;;;;;12.48;8.52;;;19.10;92.90;;;;;;5075047;28;20187;-89
2022/07/01 02:34:01;;;;;;;11.18;6.63;;;19.00;92.90;;;;;;5075133;28;20630;-88
2022/07/01 02:36:26;;;;;;;7.00;5.38;;;18.80;92.80;;;;;;5075129;28;20197;-88
2022/07/01 02:38:52;;;;;;;7.10;5.55;;;18.80;92.90;;;;;;5074058;28;20174;-88
2022/07/01 02:41:17;;;;;;;9.38;6.90;;;18.70;93.00;;;;;;5074924;28;20704;-90
2022/07/01 02:43:43;;;;;;;11.13;6.93;;;18.70;93.20;;;;;;5073648;28;20167;-90
2022/07/01 02:46:08;;;;;;;14.10;7.63;;;18.60;93.50;;;;;;5074735;28;20198;-90
2022/07/01 02:48:34;;;;;;;10.98;8.23;;;18.70;93.60;;;;;;5074625;28;20178;-90
2022/07/01 02:51:00;;;;;;;8.45;7.60;;;18.70;93.70;;;;;;5073363;28;20217;-90
2022/07/01 02:53:25;;;;;;;11.15;7.55;;;18.70;93.80;;;;;;5073367;28;20659;-90
2022/07/01 02:55:51;;;;;;;15.65;8.20;;;18.70;93.70;;;;;;5073246;28;20261;-90
2022/07/01 02:58:17;;;;;;;14.10;10.60;;;18.70;93.70;;;;;;5073209;28;20183;-90
2022/07/01 03:00:43;;;;;;;13.43;10.93;;;18.60;93.70;;;;;;5073121;28;20230;-90
2022/07/01 03:03:08;;;;;;;14.82;11.57;;;18.70;93.80;;;;;;5074488;28;20186;-90
2022/07/01 03:05:34;;;;;;;15.68;11.32;;;18.60;93.80;;;;;;5073137;28;20180;-90
2022/07/01 03:08:00;;;;;;;13.70;12.25;;;18.50;93.90;;;;;;5073228;28;20713;-91
2022/07/01 03:10:25;;;;;;;18.13;13.95;;;18.50;94.00;;;;;;5074494;28;20203;-91
2022/07/01 03:12:51;;;;;;;18.58;13.18;;;18.50;94.20;;;;;;5074508;28;20600;-91
2022/07/01 03:15:16;;;;;;;16.80;11.45;;;18.50;94.30;;;;;;5073279;28;20691;-91
2022/07/01 03:17:44;;;;;;;16.85;12.75;;;18.40;94.10;;;;;;5074754;28;20173;-91
2022/07/01 03:20:14;;;;;;;14.90;11.63;;;18.40;94.10;;;;;;5072837;28;20175;-90
2022/07/01 03:22:42;;;;;;;14.88;13.27;;;18.30;94.00;;;;;;5073879;28;20246;-90
2022/07/01 03:25:08;;;;;;;16.10;13.05;;;18.30;94.20;;;;;;5072936;28;20236;-91
2022/07/01 03:27:34;;;;;;;16.52;13.48;;;18.30;94.20;;;;;;5072982;28;20199;-90
2022/07/01 03:30:00;;;;;;;16.98;13.52;;;18.30;94.20;;;;;;5072906;28;20233;-91
2022/07/01 03:32:26;;;;;;;17.33;13.80;;;18.30;94.20;;;;;;5072816;28;20184;-91
2022/07/01 03:34:52;;;;;;;27.58;16.70;;;18.30;94.20;;;;;;5073110;28;20167;-91
2022/07/01 03:37:20;;;;;;;24.27;16.02;;;18.20;94.30;;;;;;5073071;28;20174;-91
2022/07/01 03:39:46;;;;;;;18.92;15.13;;;18.00;94.40;;;;;;5055199;28;20675;-91
2022/07/01 03:42:12;;;;;;;24.10;18.33;;;18.00;94.40;;;;;;5072994;28;20308;-92
2022/07/01 03:44:38;;;;;;;25.50;18.52;;;17.90;94.50;;;;;;5072574;28;20208;-91
2022/07/01 03:47:05;;;;;;;26.33;18.83;;;18.00;94.60;;;;;;5073741;28;20183;-91
2022/07/01 03:49:32;;;;;;;24.38;19.38;;;17.90;94.50;;;;;;5072585;28;20681;-91
2022/07/01 03:51:57;;;;;;;24.65;17.80;;;17.90;94.60;;;;;;5072959;28;20199;-92
2022/07/01 03:57:18;;;;;;;29.00;20.40;;;17.90;94.50;;;;;;5069105;28;20757;-91
2022/07/01 03:59:43;;;;;;;29.02;18.13;;;17.90;94.60;;;;;;5077908;28;20183;-92
2022/07/01 04:02:09;;;;;;;23.35;17.92;;;17.80;94.20;;;;;;5075400;28;20256;-93
2022/07/01 04:04:35;;;;;;;22.58;18.05;;;17.80;94.40;;;;;;5074639;28;20194;-92
2022/07/01 04:07:03;;;;;;;27.25;16.73;;;17.80;94.40;;;;;;5074755;28;20175;-92
2022/07/01 04:09:30;;;;;;;24.10;15.52;;;17.80;94.30;;;;;;5075991;28;20222;-94
2022/07/01 04:11:57;;;;;;;29.48;13.35;;;17.80;94.40;;;;;;5080199;28;20187;-93
2022/07/01 04:14:26;;;;;;;30.40;13.73;;;17.70;94.20;;;;;;5081766;28;20194;-94
2022/07/01 04:16:53;;;;;;;26.33;14.13;;;17.60;94.40;;;;;;5073603;28;20195;-92
2022/07/01 04:19:19;;;;;;;21.33;13.75;;;17.70;94.50;;;;;;5072865;28;20215;-92
2022/07/01 04:24:32;;;;;;;30.05;14.57;;;17.70;94.50;;;;;;5073858;28;20543;-92
2022/07/01 04:26:58;;;;;;;31.10;14.52;;;17.60;94.50;;;;;;5072223;28;20696;-92
2022/07/01 04:29:23;;;;;;;28.20;13.43;;;17.60;94.60;;;;;;5072330;28;20244;-92
2022/07/01 04:31:49;;;;;;;32.17;13.80;;;17.60;94.60;;;;;;5072781;28;20248;-92
2022/07/01 04:34:15;;;;;;;28.83;13.13;;;17.50;94.50;;;;;;5072825;28;20168;-92
2022/07/01 04:36:41;;;;;;;36.45;13.57;;;17.40;94.50;;;;;;5072763;28;20175;-92
2022/07/01 04:39:07;;;;;;;42.92;14.48;;;17.50;94.50;;;;;;5073294;28;20645;-91
2022/07/01 04:44:18;;;;;;;29.20;8.27;;;17.30;94.50;;;;;;5074834;28;20161;-92
2022/07/01 04:46:44;;;;;;;29.50;8.02;;;17.20;94.40;;;;;;5072713;28;20176;-91
2022/07/01 04:49:09;;;;;;;17.02;6.43;;;17.10;94.40;;;;;;5072571;28;20228;-90
2022/07/01 04:51:35;;;;;;;27.85;7.35;;;16.90;94.20;;;;;;5075469;28;20294;-91
2022/07/01 04:54:02;;;;;;;23.33;5.70;;;16.80;94.20;;;;;;5076506;28;20175;-91
2022/07/01 04:56:28;;;;;;;20.20;5.82;;;16.80;94.20;;;;;;5076402;28;20537;-91
2022/07/01 04:58:55;;;;;;;18.75;6.00;;;16.70;94.10;;;;;;5077532;28;20547;-91
2022/07/01 05:01:20;;;;;;;19.75;5.13;;;16.70;94.10;;;;;;5076109;28;20222;-91
2022/07/01 05:03:46;;;;;;;24.33;5.82;;;16.70;94.10;;;;;;5075762;28;20633;-91
2022/07/01 05:06:11;;;;;;;25.20;5.78;;;16.70;94.10;;;;;;5076710;28;20179;-92
2022/07/01 05:08:37;;;;;;;20.13;4.88;;;16.70;94.10;;;;;;5076017;28;20525;-92
2022/07/01 05:11:03;;;;;;;21.35;5.30;;;16.60;94.10;;;;;;5075753;28;20191;-93
2022/07/01 05:13:28;;;;;;;17.77;5.85;;;16.70;94.10;;;;;;5078283;28;20184;-92
2022/07/01 05:15:54;;;;;;;17.25;4.90;;;16.60;94.10;;;;;;5076531;28;20629;-91
2022/07/01 05:23:47;;;;;;;17.15;5.30;;;16.50;94.30;;;;;;5077966;28;20538;-91
2022/07/01 05:26:17;;;;;;;26.65;5.13;;;16.50;94.40;;;;;;5076200;28;20180;-92
2022/07/01 05:28:46;;;;;;;20.58;5.18;;;16.50;94.40;;;;;;5075810;28;20179;-92
2022/07/01 05:31:12;;;;;;;16.92;5.00;;;16.40;94.30;;;;;;5076096;28;20191;-90
2022/07/01 05:33:38;;;;;;;14.73;4.47;;;16.30;94.30;;;;;;5076436;28;20229;-92
2022/07/01 05:36:04;;;;;;;12.48;3.78;;;16.40;94.30;;;;;;5076814;28;20556;-92
2022/07/01 05:38:29;;;;;;;13.25;3.92;;;16.40;94.30;;;;;;5077086;28;20171;-92
2022/07/01 05:40:55;;;;;;;13.32;4.07;;;16.40;94.40;;;;;;5075734;28;20218;-92
2022/07/01 05:43:21;;;;;;;12.68;3.40;;;16.50;94.40;;;;;;5075345;28;20232;-92
2022/07/01 05:45:46;;;;;;;20.13;4.25;;;16.40;94.30;;;;;;5075179;28;20182;-91
2022/07/01 05:48:12;;;;;;;17.20;3.60;;;16.30;94.10;;;;;;5075411;28;20172;-93
2022/07/01 05:50:40;;;;;;;14.30;3.25;;;16.30;94.20;;;;;;5074774;28;20747;-92
2022/07/01 05:53:05;;;;;;;13.52;3.78;;;16.20;94.20;;;;;;5075040;28;20191;-91
2022/07/01 05:55:31;;;;;;;12.77;4.20;;;16.30;94.40;;;;;;5074787;28;20233;-92
2022/07/01 05:57:57;;;;;;;13.45;3.38;;;16.30;94.30;;;;;;5074716;28;20183;-91
2022/07/01 06:00:24;;;;;;;17.17;3.55;;;16.40;94.30;;;;;;5075567;28;20284;-92
2022/07/01 06:02:50;;;;;;;17.10;3.40;;;16.30;94.20;;;;;;5074745;28;20187;-91
2022/07/01 06:05:15;;;;;;;9.20;3.55;;;16.20;94.00;;;;;;5075519;28;20698;-92
2022/07/01 06:07:41;;;;;;;16.55;3.55;;;16.20;94.10;;;;;;5075283;28;20563;-91
2022/07/01 06:10:09;;;;;;;6.60;3.13;;;16.30;94.40;;;;;;5074969;28;20680;-91
2022/07/01 06:12:35;;;;;;;15.52;3.55;;;16.20;94.20;;;;;;5074460;28;20190;-91
2022/07/01 06:15:01;;;;;;;10.70;3.13;;;16.20;94.30;;;;;;5074436;28;20625;-91
2022/07/01 06:17:26;;;;;;;10.63;3.60;;;16.20;94.00;;;;;;5074410;28;20179;-91
2022/07/01 06:19:53;;;;;;;7.47;3.55;;;16.20;94.20;;;;;;5074342;28;20755;-92
2022/07/01 06:22:20;;;;;;;10.30;3.65;;;16.20;94.20;;;;;;5074271;28;20268;-91
2022/07/01 06:24:46;;;;;;;6.32;3.72;;;16.10;94.20;;;;;;5074949;28;20194;-91
2022/07/01 06:27:12;;;;;;;12.02;4.13;;;16.20;94.30;;;;;;5074750;28;20188;-92
2022/07/01 06:29:38;;;;;;;7.15;4.65;;;16.00;94.10;;;;;;5074482;28;20203;-92
2022/07/01 06:32:05;;;;;;;11.23;4.43;;;16.10;94.30;;;;;;5076043;28;20191;-91
2022/07/01 06:34:30;;;;;;;9.43;4.30;;;16.20;94.20;;;;;;5076099;28;20199;-92
2022/07/01 06:36:56;;;;;;;10.45;4.97;;;16.20;94.20;;;;;;5073981;28;20226;-93
2022/07/01 06:39:21;;;;;;;7.28;4.00;;;16.20;94.20;;;;;;5074341;28;20179;-91
2022/07/01 06:41:47;;;;;;;9.03;3.43;;;16.20;94.20;;;;;;5074031;28;20294;-92
2022/07/01 06:44:13;;;;;;;10.65;4.53;;;16.30;94.10;;;;;;5075140;28;20205;-92
2022/07/01 06:46:39;;;;;;;6.15;3.80;;;16.20;94.10;;;;;;5074294;28;20207;-92
2022/07/01 06:49:04;;;;;;;7.72;3.58;;;16.20;94.00;;;;;;5074817;28;20210;-92
2022/07/01 06:51:30;;;;;;;5.50;3.50;;;16.20;94.10;;;;;;5073782;28;20195;-92
2022/07/01 06:53:56;;;;;;;7.88;3.80;;;16.20;93.90;;;;;;5073942;28;20278;-91
2022/07/01 06:56:21;;;;;;;6.03;3.70;;;16.00;93.70;;;;;;5073830;28;20215;-91
2022/07/01 06:58:47;;;;;;;5.07;3.60;;;16.00;93.80;;;;;;5074606;28;20167;-92
2022/07/01 07:01:13;;;;;;;4.10;3.00;;;15.90;93.70;;;;;;5074518;28;20202;-92
2022/07/01 07:03:38;;;;;;;4.72;4.00;;;15.90;93.80;;;;;;5074804;28;20175;-92
2022/07/01 07:06:04;;;;;;;7.83;4.17;;;15.90;93.90;;;;;;5074718;28;20175;-93
2022/07/01 07:08:31;;;;;;;5.13;4.13;;;15.90;94.00;;;;;;5074417;28;20168;-93
2022/07/01 07:10:58;;;;;;;7.07;4.65;;;15.80;94.00;;;;;;5073766;28;20207;-92
2022/07/01 07:13:24;;;;;;;5.90;4.25;;;15.80;94.30;;;;;;5074450;28;20649;-92
2022/07/01 07:15:49;;;;;;;4.50;4.03;;;15.80;94.30;;;;;;5074123;28;20194;-92
2022/07/01 07:18:15;;;;;;;6.07;5.47;;;15.80;94.30;;;;;;5074486;28;20184;-92
2022/07/01 07:20:41;;;;;;;6.77;5.03;;;15.80;94.30;;;;;;5075176;28;20191;-93
2022/07/01 07:23:07;;;;;;;8.48;4.90;;;15.80;94.50;;;;;;5074827;28;20209;-92
2022/07/01 07:25:32;;;;;;;10.60;5.15;;;15.90;94.40;;;;;;5073796;28;20175;-92
2022/07/01 07:27:58;;;;;;;6.40;4.43;;;15.80;94.40;;;;;;5073161;28;20587;-92
2022/07/01 07:30:24;;;;;;;7.22;5.03;;;15.80;94.40;;;;;;5074045;28;20249;-93
2022/07/01 07:32:49;;;;;;;8.10;4.47;;;15.80;94.40;;;;;;5073970;28;20183;-92
2022/07/01 07:35:15;;;;;;;6.50;4.53;;;15.90;94.40;;;;;;5073352;28;20686;-92
2022/07/01 07:37:42;;;;;;;4.90;4.43;;;15.90;94.40;;;;;;5073365;28;20229;-92
2022/07/01 07:40:14;;;;;;;5.65;5.10;;;15.90;94.30;;;;;;5073376;28;20245;-92
2022/07/01 07:42:41;;;;;;;7.60;5.38;;;15.90;94.30;;;;;;5074354;28;20217;-92
2022/07/01 07:45:11;;;;;;;7.00;5.40;;;15.80;94.20;;;;;;5084675;28;20177;-92
2022/07/01 07:47:37;;;;;;;5.95;5.28;;;15.70;93.90;;;;;;5083662;28;20198;-93
2022/07/01 07:50:04;;;;;;;7.47;5.53;;;15.70;93.80;;;;;;5084430;28;20203;-92
2022/07/01 07:52:30;;;;;;;6.65;6.05;;;15.70;93.90;;;;;;5083286;28;20176;-92
2022/07/01 07:54:56;;;;;;;11.63;6.03;;;15.70;93.90;;;;;;5080282;28;20175;-92
2022/07/01 07:57:22;;;;;;;9.18;6.70;;;15.80;93.90;;;;;;5080083;28;20179;-93
2022/07/01 07:59:50;;;;;;;8.97;6.23;;;15.70;93.90;;;;;;5079054;28;20226;-92
2022/07/01 08:02:16;;;;;;;8.07;7.20;;;15.70;93.80;;;;;;5078502;28;20199;-91
2022/07/01 08:04:42;;;;;;;9.45;7.13;;;15.70;94.00;;;;;;5083331;28;20163;-93
2022/07/01 08:07:08;;;;;;;12.02;7.30;;;15.70;93.90;;;;;;5082927;28;20171;-92
2022/07/01 08:09:34;;;;;;;7.55;6.68;;;15.70;93.70;;;;;;5077821;28;20202;-93
2022/07/01 08:12:02;;;;;;;8.57;7.60;;;15.80;93.80;;;;;;5079310;28;20197;-92
2022/07/01 08:14:27;;;;;;;9.68;7.07;;;15.80;93.70;;;;;;5075268;28;20175;-92
2022/07/01 08:16:54;;;;;;;9.80;7.60;;;15.80;93.70;;;;;;5077209;28;20180;-93
2022/07/01 08:19:20;;;;;;;10.63;7.60;;;15.90;93.70;;;;;;5078576;28;20267;-92
2022/07/01 08:21:46;;;;;;;8.07;7.35;;;15.90;93.70;;;;;;5060000;28;20784;-92
2022/07/01 08:24:13;;;;;;;11.00;7.30;;;15.90;93.60;;;;;;5079441;28;20281;-93
2022/07/01 08:26:39;;;;;;;7.75;6.93;;;16.00;93.60;;;;;;5077801;28;20212;-92
2022/07/01 08:29:04;;;;;;;11.23;7.88;;;15.90;93.40;;;;;;5078482;28;20268;-92
2022/07/01 08:31:31;;;;;;;11.02;7.40;;;15.90;93.40;;;;;;5075735;28;20293;-91
2022/07/01 08:33:57;;;;;;;8.52;7.80;;;16.00;93.40;;;;;;5077207;28;20176;-92
2022/07/01 08:36:23;;;;;;;10.30;7.30;;;15.90;93.50;;;;;;5076065;28;20236;-92
2022/07/01 08:38:49;;;;;;;10.45;7.60;;;16.00;93.50;;;;;;5075684;28;20171;-92
2022/07/01 08:41:15;;;;;;;8.10;6.72;;;16.00;93.40;;;;;;5077485;28;20218;-92
2022/07/01 08:43:41;;;;;;;7.85;7.10;;;16.00;93.40;;;;;;5081088;28;20167;-92
2022/07/01 08:46:07;;;;;;;8.20;6.72;;;16.00;93.40;;;;;;5078190;28;20168;-92
2022/07/01 08:48:33;;;;;;;7.43;6.47;;;16.00;93.30;;;;;;5075640;28;20176;-92
2022/07/01 08:51:03;;;;;;;9.87;6.30;;;16.10;93.20;;;;;;5075660;28;20207;-92
2022/07/01 08:53:30;;;;;;;7.80;6.50;;;16.10;93.20;;;;;;5079909;28;20171;-92
2022/07/01 08:58:40;;;;;;;8.73;7.03;;;16.10;93.00;;;;;;5080565;28;20240;-92
2022/07/01 09:01:13;;;;;;;7.38;6.68;;;16.10;92.90;;;;;;5084968;28;20223;-92
2022/07/01 09:03:39;;;;;;;13.65;6.45;;;16.10;92.90;;;;;;5076199;28;20254;-89
2022/07/01 09:06:13;;;;;;;5.88;5.35;;;16.20;92.80;;;;;;5077690;28;20680;-89
2022/07/01 09:08:38;;;;;;;7.20;4.67;;;16.00;92.30;;;;;;5077290;28;20171;-91
2022/07/01 09:11:29;;;;;;;6.83;4.77;;;16.00;92.10;;;;;;5075982;28;20187;-91
2022/07/01 09:14:15;;;;;;;10.57;4.70;;;16.10;92.40;;;;;;5074982;28;20163;-90
2022/07/01 09:16:46;;;;;;;8.35;4.97;;;16.20;92.60;;;;;;5078614;28;20649;-91
2022/07/01 09:19:13;;;;;;;6.55;5.53;;;16.10;92.40;;;;;;5079722;28;20174;-92
2022/07/01 09:21:39;;;;;;;9.60;5.90;;;16.10;92.40;;;;;;5078142;28;20195;-90
2022/07/01 09:24:27;;;;;;;10.32;5.53;;;16.10;92.50;;;;;;5074181;28;20182;-89
2022/07/01 09:27:11;;;;;;;8.27;5.43;;;16.10;92.50;;;;;;5073530;28;20171;-90
2022/07/01 09:29:41;;;;;;;8.57;6.90;;;16.10;92.80;;;;;;5078316;28;20196;-90
2022/07/01 09:32:09;;;;;;;8.93;6.63;;;16.00;92.40;;;;;;5076944;28;20214;-90
2022/07/01 09:34:43;;;;;;;5.70;5.13;;;15.90;92.00;;;;;;5075585;28;20179;-90
2022/07/01 09:37:12;;;;;;;6.53;5.90;;;15.80;92.10;;;;;;5088278;28;20227;-91
2022/07/01 09:39:43;;;;;;;8.13;6.50;;;15.90;92.70;;;;;;5095127;28;20175;-92
2022/07/01 09:42:09;;;;;;;7.45;6.50;;;16.00;92.70;;;;;;5089329;28;20244;-91
2022/07/01 09:44:34;;;;;;;8.18;7.35;;;16.10;92.80;;;;;;5077996;28;20167;-90
2022/07/01 09:47:01;;;;;;;13.07;7.53;;;16.20;92.90;;;;;;5076785;28;20641;-91
2022/07/01 09:49:27;;;;;;;11.35;8.60;;;16.30;92.90;;;;;;5079638;28;20195;-90
2022/07/01 09:51:53;;;;;;;8.98;8.18;;;16.40;93.20;;;;;;5077293;28;20226;-91
2022/07/01 09:54:19;;;;;;;9.02;8.10;;;16.50;93.10;;;;;;5075967;28;20171;-89
2022/07/01 09:56:45;;;;;;;12.43;8.50;;;16.30;92.40;;;;;;5076446;28;20239;-90
2022/07/01 09:59:10;;;;;;;11.82;8.90;;;16.30;92.60;;;;;;5075976;28;20256;-92
2022/07/01 10:01:38;;;;;;;9.43;8.50;;;16.30;92.30;;;;;;5074902;28;20199;-89
2022/07/01 10:04:07;;;;;;;8.38;7.68;;;16.30;92.00;;;;;;5074682;28;20175;-91
2022/07/01 10:06:53;;;;;;;9.68;8.55;;;16.30;91.80;;;;;;5074507;28;20645;-89
2022/07/01 10:09:33;;;;;;;9.48;8.57;;;16.50;92.10;;;;;;5074493;28;20195;-89
2022/07/01 10:12:24;;;;;;;10.98;9.15;;;16.40;91.20;;;;;;5075978;28;20194;-92
2022/07/01 10:14:50;;;;;;;10.15;7.93;;;16.50;91.20;;;;;;5075546;28;20171;-89
2022/07/01 10:17:31;;;;;;;10.48;8.63;;;16.30;90.20;;;;;;5075328;28;20176;-89
2022/07/01 10:20:07;;;;;;;9.52;8.00;;;16.30;90.60;;;;;;5075529;28;20151;-90
2022/07/01 10:22:36;;;;;;;11.40;9.25;;;16.30;90.30;;;;;;5075332;28;20522;-89
2022/07/01 10:25:31;;;;;;;11.32;9.98;;;16.40;90.50;;;;;;5075837;28;20731;-91
2022/07/01 10:28:12;;;;;;;10.15;9.27;;;16.40;90.30;;;;;;5077153;28;20183;-91
2022/07/01 10:31:00;;;;;;;11.43;10.23;;;16.40;90.00;;;;;;5077370;28;20769;-90
2022/07/01 10:33:55;;;;;;;10.63;9.13;;;16.40;90.30;;;;;;5078405;28;20194;-92
2022/07/01 10:36:29;;;;;;;14.20;9.70;;;16.30;90.10;;;;;;5079435;28;20243;-90
2022/07/01 10:39:01;;;;;;;11.50;8.20;;;16.30;90.00;;;;;;5076908;28;20163;-89
2022/07/01 10:41:29;;;;;;;10.93;8.80;;;16.20;89.20;;;;;;5075143;28;20187;-89
2022/07/01 10:43:55;;;;;;;10.60;8.60;;;16.20;89.50;;;;;;5074921;28;20656;-89
2022/07/01 10:46:40;;;;;;;13.93;8.70;;;16.20;89.50;;;;;;5073726;28;20178;-89
2022/07/01 10:49:13;;;;;;;10.55;9.45;;;16.30;89.40;;;;;;5074153;28;20703;-89
2022/07/01 10:51:58;;;;;;;8.98;8.07;;;16.30;89.90;;;;;;5074697;28;20187;-89
2022/07/01 10:57:22;;;;;;;10.88;9.75;;;16.30;88.70;;;;;;5074748;28;20187;-90
2022/07/01 10:59:53;;;;;;;8.40;7.38;;;16.50;89.30;;;;;;5074539;28;20175;-89
2022/07/01 11:02:25;;;;;;;9.15;8.07;;;16.50;88.50;;;;;;5074609;28;20688;-89
2022/07/01 11:04:53;;;;;;;10.77;8.65;;;16.40;88.20;;;;;;5074946;28;20160;-90
2022/07/01 11:07:19;;;;;;;8.88;7.95;;;16.60;89.10;;;;;;5074480;28;20164;-89
2022/07/01 11:09:45;;;;;;;11.32;8.50;;;16.60;89.10;;;;;;5074316;28;20203;-89
2022/07/01 11:12:10;;;;;;;10.25;8.35;;;16.60;89.40;;;;;;5074354;28;20703;-89
2022/07/01 11:14:40;;;;;;;12.10;8.77;;;16.50;88.40;;;;;;5073085;28;20229;-89
2022/07/01 11:17:06;;;;;;;8.10;7.32;;;16.50;88.80;;;;;;5073067;28;20539;-89
2022/07/01 11:19:32;;;;;;;9.27;7.57;;;16.50;88.90;;;;;;5074215;28;20163;-89
2022/07/01 11:21:58;;;;;;;9.13;8.07;;;16.50;88.60;;;;;;5074123;28;20203;-89
2022/07/01 11:24:25;;;;;;;9.85;6.35;;;16.50;88.60;;;;;;5074103;28;20172;-89
2022/07/01 11:26:54;;;;;;;8.27;5.80;;;16.40;87.20;;;;;;5074058;28;20175;-89
2022/07/01 11:29:27;;;;;;;7.32;5.70;;;16.50;87.20;;;;;;5073994;28;20260;-89
2022/07/01 11:31:54;;;;;;;12.68;7.15;;;16.50;87.10;;;;;;5073936;28;20198;-90
2022/07/01 11:34:20;;;;;;;8.55;7.38;;;16.60;87.30;;;;;;5073983;28;20220;-90
2022/07/01 11:39:34;;;;;;;8.23;7.25;;;16.50;87.00;;;;;;5074256;28;20245;-89
2022/07/01 11:42:04;;;;;;;10.57;8.35;;;16.60;87.00;;;;;;5073762;28;20207;-89
2022/07/01 11:44:41;;;;;;;13.60;7.88;;;16.70;87.50;;;;;;5074043;28;20152;-89
2022/07/01 11:47:09;;;;;;;16.30;7.93;;;16.80;87.50;;;;;;5073884;28;20152;-89
2022/07/01 11:49:44;;;;;;;9.35;7.63;;;16.80;87.50;;;;;;5072490;28;20234;-89
2022/07/01 11:52:10;;;;;;;14.20;7.57;;;16.70;85.90;;;;;;5073811;28;20183;-88
2022/07/01 11:54:41;;;;;;;8.50;7.32;;;16.70;85.90;;;;;;5074131;28;20167;-89
2022/07/01 11:57:12;;;;;;;9.52;7.43;;;16.70;85.70;;;;;;5073702;28;20734;-88
2022/07/01 11:59:39;;;;;;;11.18;7.47;;;16.80;86.40;;;;;;5073228;28;20700;-89
2022/07/01 12:02:06;;;;;;;11.25;7.88;;;16.80;86.50;;;;;;5073361;28;20209;-89
2022/07/01 12:04:32;;;;;;;10.73;7.93;;;17.00;87.10;;;;;;5073632;28;20229;-88
2022/07/01 12:06:59;;;;;;;9.23;7.82;;;16.80;84.40;;;;;;5073883;28;20535;-90
2022/07/01 12:09:25;;;;;;;9.45;8.30;;;16.90;84.80;;;;;;5073551;28;20195;-89
2022/07/01 12:11:51;;;;;;;12.82;8.35;;;17.00;84.40;;;;;;5073244;28;20188;-89
2022/07/01 12:14:25;;;;;;;10.50;9.05;;;17.00;84.70;;;;;;5073398;28;20210;-89
2022/07/01 12:16:53;;;;;;;13.07;9.70;;;17.00;84.70;;;;;;5072235;28;20665;-89
2022/07/01 12:19:19;;;;;;;13.38;9.38;;;17.00;84.10;;;;;;5073392;28;20221;-89
2022/07/01 12:21:58;;;;;;;14.77;9.88;;;17.10;84.00;;;;;;5073397;28;20191;-89
2022/07/01 12:24:24;;;;;;;11.73;10.52;;;17.10;84.20;;;;;;5073706;28;20163;-89
2022/07/01 12:26:58;;;;;;;11.63;10.43;;;17.00;83.80;;;;;;5073575;28;20245;-89
2022/07/01 12:29:28;;;;;;;14.00;10.90;;;17.00;84.10;;;;;;5072198;28;20201;-89
2022/07/01 12:32:02;;;;;;;13.27;10.75;;;17.00;84.10;;;;;;5073180;28;20199;-89
2022/07/01 12:34:47;;;;;;;11.85;10.35;;;17.10;83.70;;;;;;5071983;28;20231;-88
2022/07/01 12:37:14;;;;;;;14.95;9.40;;;17.20;84.00;;;;;;5073314;28;20166;-90
2022/07/01 12:39:44;;;;;;;11.63;9.40;;;17.20;82.60;;;;;;5073619;28;20171;-90
2022/07/01 12:42:20;;;;;;;10.65;9.40;;;17.30;82.70;;;;;;5073253;28;20222;-89
2022/07/01 12:44:46;;;;;;;10.52;8.88;;;17.30;82.60;;;;;;5073096;28;20163;-90
2022/07/01 12:47:40;;;;;;;10.95;7.63;;;17.30;81.50;;;;;;5073189;28;20167;-89
2022/07/01 12:50:19;;;;;;;12.30;8.25;;;17.50;81.60;;;;;;5067468;28;20257;-90
2022/07/01 12:53:06;;;;;;;9.80;7.70;;;17.70;81.90;;;;;;5073328;28;20523;-89
2022/07/01 12:55:35;;;;;;;10.23;7.80;;;17.80;79.70;;;;;;5073104;28;20163;-89
2022/07/01 12:58:04;;;;;;;12.60;7.90;;;18.00;80.90;;;;;;5072844;28;20183;-89
2022/07/01 13:00:31;;;;;;;12.90;9.10;;;18.10;80.00;;;;;;5073039;28;20195;-89
2022/07/01 13:02:59;;;;;;;8.63;7.72;;;17.90;78.10;;;;;;5072969;28;20179;-88